Hauptseite
METAR-TAF:

METAR-TAF

Flughäfen :

Lanseria International Airport

Lanseria, Südafrika

Breite: 25-56S, Länge: 027-56E, Höhe: 1377 m

Beobachtung

Neuester Wetterbericht von vor 55 Minuten, um 14:00 UTC
Wind 7 kt aus Südwest, variierte zwischen Süd und West/Südwest
Temperatur 30°C
Luftfeuchtigkeit 24%
Luftdruck 1022 hPa
Sichtweite 10 km oder mehr
keine Wolken unter 1500 m und keine Kumulonimbus oder Gewitterwolken

METAR: FALA 231400Z 22007KT 180V250 CAVOK 30/07 Q1022 NOSIG

Zeit: 16:55 (14:55 UTC)

Prognose

Neuester Wetterbericht von vor 4 Stunden und 55 Minuten, um 10:00 UTC
Gültige Prognose vom 23 um 12 UTC bis 24 um 12 UTC
Wind 3 kt aus unterschiedlichen Richtungen
Sichtweite 10 km oder mehr
keine Wolken unter 1500 m und keine Kumulonimbus oder Gewitterwolken

TAF: FALA 231000Z 2312/2412 VRB03KT CAVOK TX30/2313Z TN15/2404Z

Wetterbeobachtungen und Prognosen von mehr als 4000 Flughäfen (METAR und TAF Bericht).

Die verfügbaren Stationen werden durch gelbe und rote Markierungen auf der Karte dargestellt.

Führen Sie die Maus auf sie, um den Namen der Station zu sehen.

Darauf klicken, um die Beobachtung von Wetterbeobachtungen und Prognosen zu sehen.

Um die Karte zu ändern : klicken Sie auf den grünen Tasten mit einem schwarzen Kreuz Zum Vergrößern, auf den grünen Button mit einem Gedankenstrich zu verkleinern, oder auf die grünen Pfeile für benachbarte Karten.


METAR-TAF: